Time;durP1;ratioP1;P1;durP2;ratioP2;P2;SDS_P1;SDS_P2;PMS_P1;PMS_P2;Temp;Humidity;BMP_temperature;BMP_pressure;BME280_temperature;BME280_humidity;BME280_pressure;Samples;Min_cycle;Max_cycle;Signal;HPM_P1;HPM_P2
2021/08/31 00:02:24;;;;;;;;;16.00;16.00;;;;;18.07;69.69;101977.09;4907749;28;45473;-67
2021/08/31 00:04:49;;;;;;;;;19.25;15.25;;;;;18.08;69.69;101981.47;4907752;28;46033;-66
2021/08/31 00:07:15;;;;;;;;;14.25;13.75;;;;;18.07;69.56;101982.44;4893257;28;46011;-67
2021/08/31 00:09:40;;;;;;;;;16.00;13.75;;;;;18.07;69.61;101979.78;4964183;28;46446;-67
2021/08/31 00:12:06;;;;;;;;;14.75;13.50;;;;;18.08;69.49;101983.31;4898104;28;45485;-67
2021/08/31 00:14:34;;;;;;;;;18.25;15.75;;;;;18.09;69.94;101984.97;4904938;28;45585;-67
2021/08/31 00:16:59;;;;;;;;;20.75;15.25;;;;;18.07;69.60;101982.44;4933446;28;46032;-67
2021/08/31 00:19:25;;;;;;;;;20.25;16.75;;;;;18.08;69.47;101976.13;4949708;28;45685;-67
2021/08/31 00:21:50;;;;;;;;;17.75;14.00;;;;;18.08;69.49;101977.97;4897594;28;45693;-67
2021/08/31 00:24:15;;;;;;;;;16.25;15.00;;;;;18.09;69.48;101984.97;4966749;28;45450;-67
2021/08/31 00:26:41;;;;;;;;;19.00;15.75;;;;;18.08;69.83;101984.13;4909394;28;45730;-67
2021/08/31 00:29:06;;;;;;;;;13.25;12.25;;;;;18.06;69.48;101986.16;4925842;28;46433;-67
2021/08/31 00:31:31;;;;;;;;;19.50;15.00;;;;;18.04;69.50;101977.44;4945477;28;45524;-67
2021/08/31 00:33:57;;;;;;;;;16.00;14.50;;;;;18.03;69.66;101981.13;4901856;28;45483;-67
2021/08/31 00:36:22;;;;;;;;;17.00;15.00;;;;;18.01;69.62;101977.78;4890410;28;45975;-67
2021/08/31 00:38:47;;;;;;;;;15.75;14.00;;;;;18.00;69.67;101986.78;4909580;28;46710;-66
2021/08/31 00:41:13;;;;;;;;;15.25;14.25;;;;;17.99;69.56;101985.97;4906220;28;46933;-67
2021/08/31 00:43:56;;;;;;;;;20.75;18.25;;;;;17.99;69.58;101979.78;4906973;28;46096;-67
2021/08/31 00:46:23;;;;;;;;;19.75;17.25;;;;;17.95;69.58;101973.09;4907059;28;45580;-67
2021/08/31 00:48:51;;;;;;;;;14.50;9.50;;;;;17.93;69.80;101973.28;4895170;28;55976;-68
2021/08/31 00:51:20;;;;;;;;;18.00;15.00;;;;;17.92;69.71;101978.78;4894642;28;45377;-68
2021/08/31 00:53:47;;;;;;;;;14.25;13.00;;;;;17.90;69.53;101975.44;4907759;28;45380;-70
2021/08/31 00:56:12;;;;;;;;;18.00;15.00;;;;;17.87;69.97;101971.25;4906581;28;45511;-68
2021/08/31 00:58:38;;;;;;;;;19.75;17.50;;;;;17.85;69.87;101967.91;4905405;28;45489;-69
2021/08/31 01:01:04;;;;;;;;;20.25;17.50;;;;;17.86;69.90;101979.47;4905571;28;45571;-69
2021/08/31 01:03:30;;;;;;;;;21.50;17.50;;;;;17.84;70.03;101977.78;4885223;28;45923;-69
2021/08/31 01:05:57;;;;;;;;;19.50;16.25;;;;;17.83;70.33;101980.66;4909432;28;45466;-69
2021/08/31 01:08:22;;;;;;;;;21.00;17.50;;;;;17.81;69.94;101991.50;4938811;28;47090;-67
2021/08/31 01:10:48;;;;;;;;;19.50;16.75;;;;;17.82;70.24;101985.13;4932810;28;45667;-62
2021/08/31 01:13:14;;;;;;;;;19.75;16.75;;;;;17.82;69.97;101990.47;4906127;28;45841;-69
2021/08/31 01:15:43;;;;;;;;;17.00;14.00;;;;;17.82;70.16;101985.13;4889653;28;45516;-68
2021/08/31 01:18:23;;;;;;;;;21.00;17.00;;;;;17.81;70.30;101994.16;4969433;28;47098;-67
2021/08/31 01:20:50;;;;;;;;;17.00;15.75;;;;;17.79;70.17;101988.13;4906348;28;45440;-67
2021/08/31 01:23:16;;;;;;;;;20.50;15.50;;;;;17.80;70.63;101981.81;4904677;28;45496;-67
2021/08/31 01:25:43;;;;;;;;;16.00;13.75;;;;;17.82;70.59;101989.66;4904838;28;45521;-67
2021/08/31 01:28:15;;;;;;;;;17.25;16.25;;;;;17.83;70.24;101988.66;4905872;28;48383;-67
2021/08/31 01:30:42;;;;;;;;;15.75;13.50;;;;;17.84;70.08;101993.00;4903335;28;46241;-67
2021/08/31 01:33:09;;;;;;;;;17.25;16.00;;;;;17.83;70.32;101989.50;4965038;28;45463;-67
2021/08/31 01:35:34;;;;;;;;;15.00;12.75;;;;;17.82;70.11;101990.47;4908265;28;45467;-67
2021/08/31 01:38:00;;;;;;;;;12.25;10.75;;;;;17.83;70.03;102002.03;4906741;28;46091;-67
2021/08/31 01:40:25;;;;;;;;;12.50;10.50;;;;;17.81;70.21;101988.81;4905627;28;45398;-67
2021/08/31 01:42:50;;;;;;;;;15.25;10.75;;;;;17.81;70.28;101990.66;4895407;28;45364;-67
2021/08/31 01:45:15;;;;;;;;;18.50;12.50;;;;;17.79;70.10;101988.13;4895132;28;45395;-67
2021/08/31 01:47:41;;;;;;;;;11.75;9.25;;;;;17.78;70.29;101988.31;4908222;28;46305;-67
2021/08/31 01:50:07;;;;;;;;;12.75;10.25;;;;;17.75;70.25;101994.78;4906198;28;45805;-67
2021/08/31 01:52:32;;;;;;;;;13.50;9.00;;;;;17.73;70.34;101991.47;4923582;28;45795;-67
2021/08/31 01:54:58;;;;;;;;;13.50;9.25;;;;;17.72;70.37;101992.44;4900754;28;45626;-67
2021/08/31 01:57:23;;;;;;;;;11.75;10.00;;;;;17.69;70.33;101992.78;4889216;28;46018;-67
2021/08/31 01:59:48;;;;;;;;;16.00;10.75;;;;;17.66;70.65;101986.94;4908637;28;45425;-67
2021/08/31 02:02:13;;;;;;;;;11.25;9.25;;;;;17.63;70.65;101994.28;4906441;28;45530;-67
2021/08/31 02:04:39;;;;;;;;;10.50;8.00;;;;;17.61;70.26;101990.13;4906481;28;45479;-67
2021/08/31 02:07:04;;;;;;;;;11.25;10.00;;;;;17.59;70.46;101984.09;4884601;28;45510;-67
2021/08/31 02:09:29;;;;;;;;;10.25;10.00;;;;;17.58;70.60;102001.13;4964308;28;46059;-67
2021/08/31 02:11:55;;;;;;;;;11.25;8.75;;;;;17.55;70.44;102004.13;4908613;28;45370;-67
2021/08/31 02:14:20;;;;;;;;;9.25;8.25;;;;;17.54;70.51;102005.13;4900907;28;45595;-67
2021/08/31 02:16:45;;;;;;;;;11.00;8.75;;;;;17.51;70.86;102006.31;4918131;28;45950;-67
2021/08/31 02:19:11;;;;;;;;;11.50;10.25;;;;;17.50;70.80;102006.47;4958322;28;47234;-67
2021/08/31 02:21:36;;;;;;;;;13.00;10.00;;;;;17.50;70.75;102009.13;4885771;28;45470;-67
2021/08/31 02:24:01;;;;;;;;;11.25;8.75;;;;;17.47;70.88;102012.13;4906880;28;45513;-67
2021/08/31 02:26:31;;;;;;;;;10.00;9.50;;;;;17.47;70.70;102004.94;4905211;28;45560;-67
2021/08/31 02:28:57;;;;;;;;;13.25;9.00;;;;;17.48;70.56;102000.44;4905288;28;45573;-67
2021/08/31 02:31:22;;;;;;;;;11.50;9.25;;;;;17.48;70.83;101997.75;4905648;28;46134;-67
2021/08/31 02:33:47;;;;;;;;;9.75;8.25;;;;;17.47;70.97;102007.63;4893174;28;45594;-67
2021/08/31 02:36:13;;;;;;;;;13.75;10.00;;;;;17.47;70.92;102002.28;4896392;28;46093;-67
2021/08/31 02:38:38;;;;;;;;;13.25;10.00;;;;;17.48;70.87;102009.31;4907862;28;45515;-67
2021/08/31 02:41:03;;;;;;;;;13.25;10.25;;;;;17.49;70.73;102005.63;4905058;28;45883;-67
2021/08/31 02:43:29;;;;;;;;;10.50;8.75;;;;;17.50;70.87;101995.78;4904836;28;45545;-67
2021/08/31 02:45:54;;;;;;;;;13.00;10.00;;;;;17.49;70.75;101994.09;4896812;28;46093;-67
2021/08/31 02:48:19;;;;;;;;;12.75;8.25;;;;;17.49;70.79;102000.28;4890922;28;46328;-67
2021/08/31 02:50:45;;;;;;;;;13.50;10.00;;;;;17.48;70.68;102001.31;4908058;28;45494;-67
2021/08/31 02:53:10;;;;;;;;;11.00;8.50;;;;;17.49;70.63;101994.09;4907910;28;45466;-67
2021/08/31 02:55:35;;;;;;;;;13.25;10.75;;;;;17.47;70.71;102006.78;4906487;28;46442;-67
2021/08/31 02:58:01;;;;;;;;;9.75;9.25;;;;;17.45;71.05;102003.44;4904608;28;45638;-67
2021/08/31 03:00:30;;;;;;;;;11.50;9.00;;;;;17.44;70.78;101996.44;4889221;28;45626;-67
2021/08/31 03:02:56;;;;;;;;;12.00;9.50;;;;;17.41;70.73;101998.44;4911251;28;45680;-67
2021/08/31 03:05:21;;;;;;;;;10.25;7.75;;;;;17.41;70.91;101998.44;4906448;28;46220;-67
2021/08/31 03:07:46;;;;;;;;;13.25;9.25;;;;;17.40;71.13;101996.75;4913114;28;45488;-67
2021/08/31 03:10:12;;;;;;;;;10.25;8.75;;;;;17.40;71.06;101993.25;4942659;28;45480;-68
2021/08/31 03:12:37;;;;;;;;;11.00;9.75;;;;;17.40;71.25;101991.41;4906981;28;45455;-67
2021/08/31 03:15:04;;;;;;;;;13.75;10.00;;;;;17.38;71.23;101987.22;4908042;28;45730;-67
2021/08/31 03:17:30;;;;;;;;;14.00;8.75;;;;;17.37;71.26;101990.91;4956202;28;46015;-67
2021/08/31 03:19:55;;;;;;;;;12.50;10.25;;;;;17.37;70.82;101985.56;4930264;28;45677;-67
2021/08/31 03:22:21;;;;;;;;;12.00;11.25;;;;;17.37;71.29;101991.72;4907935;28;45777;-67
2021/08/31 03:24:46;;;;;;;;;14.75;13.00;;;;;17.36;70.96;101990.06;4894140;28;46066;-67
2021/08/31 03:27:11;;;;;;;;;9.75;7.75;;;;;17.35;70.76;101992.91;4899910;28;45477;-67
2021/08/31 03:29:37;;;;;;;;;15.25;8.75;;;;;17.35;70.93;101992.91;4910449;28;45474;-67
2021/08/31 03:32:02;;;;;;;;;13.50;9.75;;;;;17.36;71.18;101995.41;4908235;28;46076;-67
2021/08/31 03:34:28;;;;;;;;;13.25;10.00;;;;;17.36;71.12;101994.59;4907639;28;45562;-67
2021/08/31 03:36:53;;;;;;;;;13.25;10.50;;;;;17.37;70.99;102004.25;4898583;28;45741;-67
2021/08/31 03:39:19;;;;;;;;;14.25;10.75;;;;;17.36;71.09;102003.44;4894389;28;46021;-67
2021/08/31 03:41:44;;;;;;;;;11.75;10.75;;;;;17.36;71.30;101999.94;4908981;28;45780;-67
2021/08/31 03:44:09;;;;;;;;;11.75;10.50;;;;;17.36;71.08;102006.09;4907907;28;46193;-67
2021/08/31 03:46:35;;;;;;;;;11.25;10.75;;;;;17.36;71.06;102006.09;4908214;28;56869;-67
2021/08/31 03:49:01;;;;;;;;;12.00;10.50;;;;;17.36;71.02;102005.28;4903162;28;45551;-68
2021/08/31 03:51:26;;;;;;;;;12.00;11.00;;;;;17.37;70.90;102001.59;4889000;28;45520;-67
2021/08/31 03:53:52;;;;;;;;;13.50;12.75;;;;;17.38;70.93;102009.47;4910199;28;47236;-68
2021/08/31 03:56:17;;;;;;;;;15.00;10.25;;;;;17.40;71.28;102004.75;4907667;28;45541;-68
2021/08/31 03:58:42;;;;;;;;;12.50;11.50;;;;;17.38;70.98;102004.13;4907287;28;45571;-67
2021/08/31 04:01:07;;;;;;;;;16.75;13.50;;;;;17.37;71.12;102005.09;4907422;28;45354;-68
2021/08/31 04:03:33;;;;;;;;;19.00;13.75;;;;;17.37;71.06;102013.09;4885689;28;47065;-67
2021/08/31 04:05:58;;;;;;;;;13.25;11.00;;;;;17.39;70.82;102010.28;4909016;28;45667;-67
2021/08/31 04:08:24;;;;;;;;;12.25;11.00;;;;;17.40;71.01;102012.78;4938657;28;50330;-68
2021/08/31 04:10:49;;;;;;;;;20.00;13.25;;;;;17.40;71.01;102012.78;4953178;28;45415;-67
2021/08/31 04:13:18;;;;;;;;;14.75;12.25;;;;;17.40;70.79;102015.44;4907170;28;46099;-67
2021/08/31 04:15:43;;;;;;;;;12.50;11.75;;;;;17.39;70.59;102021.81;4890760;28;45848;-67
2021/08/31 04:18:09;;;;;;;;;14.25;13.25;;;;;17.39;71.01;102021.81;4971235;28;45527;-67
2021/08/31 04:20:34;;;;;;;;;11.25;11.00;;;;;17.39;70.92;102013.78;4923532;28;45669;-68
2021/08/31 04:22:59;;;;;;;;;14.50;13.50;;;;;17.39;71.27;102008.44;4907556;28;46937;-68
2021/08/31 04:25:25;;;;;;;;;14.50;14.50;;;;;17.38;70.89;102004.13;4907171;28;52124;-67
2021/08/31 04:27:50;;;;;;;;;13.25;13.25;;;;;17.36;70.94;102006.09;4895740;28;45510;-68
2021/08/31 04:30:16;;;;;;;;;17.75;11.50;;;;;17.35;70.89;102015.09;4896662;28;45645;-68
2021/08/31 04:32:41;;;;;;;;;13.50;13.50;;;;;17.34;71.28;102013.44;4905154;28;48658;-67
2021/08/31 04:35:07;;;;;;;;;15.50;15.00;;;;;17.35;71.28;102017.78;4903920;28;45483;-67
2021/08/31 04:37:33;;;;;;;;;15.00;15.00;;;;;17.36;71.25;102016.78;4907194;28;45727;-68
2021/08/31 04:39:59;;;;;;;;;17.00;13.75;;;;;17.37;71.37;102013.09;4900779;28;45467;-67
2021/08/31 04:42:25;;;;;;;;;18.25;15.25;;;;;17.38;71.36;102025.50;4889314;28;48552;-68
2021/08/31 04:44:50;;;;;;;;;15.00;14.00;;;;;17.40;71.11;102028.81;4909522;28;45710;-67
2021/08/31 04:47:16;;;;;;;;;15.25;15.25;;;;;17.40;70.95;102020.78;4907538;28;45577;-68
2021/08/31 04:49:41;;;;;;;;;21.25;18.25;;;;;17.40;71.18;102019.97;4907235;28;45651;-68
2021/08/31 04:52:07;;;;;;;;;19.25;15.25;;;;;17.40;71.12;102023.47;4906466;28;47308;-68
2021/08/31 04:54:33;;;;;;;;;13.50;11.50;;;;;17.44;71.27;102036.53;4885072;28;45584;-68
2021/08/31 04:56:58;;;;;;;;;15.00;14.00;;;;;17.42;70.87;102032.16;4909502;28;45537;-68
2021/08/31 04:59:24;;;;;;;;;23.25;18.75;;;;;17.43;70.96;102033.00;4906347;28;45538;-67
2021/08/31 05:01:49;;;;;;;;;21.75;19.25;;;;;17.45;70.93;102030.16;4906808;28;46062;-67
2021/08/31 05:04:15;;;;;;;;;20.25;17.75;;;;;17.44;71.11;102034.69;4906774;28;45830;-68
2021/08/31 05:06:40;;;;;;;;;20.00;17.00;;;;;17.47;70.88;102033.53;4885360;28;46332;-68
2021/08/31 05:09:05;;;;;;;;;21.25;17.00;;;;;17.49;71.04;102031.53;4965996;28;45426;-67
2021/08/31 05:11:31;;;;;;;;;20.00;17.50;;;;;17.51;70.83;102034.88;4904530;28;45753;-68
2021/08/31 05:13:56;;;;;;;;;19.75;15.00;;;;;17.51;70.62;102034.88;4902228;28;45559;-68
2021/08/31 05:16:21;;;;;;;;;21.00;16.25;;;;;17.53;70.80;102038.19;4905745;28;46027;-68
2021/08/31 05:18:47;;;;;;;;;24.00;19.25;;;;;17.53;70.81;102033.72;4963007;28;45993;-68
2021/08/31 05:21:13;;;;;;;;;20.25;18.00;;;;;17.56;70.89;102035.22;4897207;28;46208;-68
2021/08/31 05:23:38;;;;;;;;;19.75;19.75;;;;;17.56;70.71;102035.22;4908759;28;45463;-68
2021/08/31 05:26:04;;;;;;;;;19.00;16.50;;;;;17.58;70.82;102046.56;4906294;28;45738;-68
2021/08/31 05:28:30;;;;;;;;;16.75;15.00;;;;;17.58;70.76;102047.41;4892822;28;45566;-68
2021/08/31 05:30:56;;;;;;;;;18.75;15.00;;;;;17.59;71.03;102038.38;4886371;28;46392;-68
2021/08/31 05:33:21;;;;;;;;;21.50;18.00;;;;;17.60;70.83;102039.22;4884827;28;45709;-68
2021/08/31 05:35:46;;;;;;;;;23.50;20.50;;;;;17.60;70.67;102041.88;4888846;28;45505;-68
2021/08/31 05:38:12;;;;;;;;;22.50;17.75;;;;;17.62;71.18;102050.59;4889455;28;45503;-71
2021/08/31 05:40:38;;;;;;;;;21.25;16.75;;;;;17.61;71.09;102047.09;4888995;28;46142;-66
2021/08/31 05:43:03;;;;;;;;;19.25;17.25;;;;;17.63;70.85;102045.09;4880207;28;45675;-67
2021/08/31 05:45:28;;;;;;;;;15.75;15.00;;;;;17.62;70.90;102046.06;4884981;28;45578;-66
2021/08/31 05:47:55;;;;;;;;;25.50;18.00;;;;;17.64;70.96;102045.91;4891892;28;45875;-65
2021/08/31 05:50:21;;;;;;;;;20.25;16.75;;;;;17.64;70.87;102056.63;4891375;28;45947;-73
2021/08/31 05:52:47;;;;;;;;;21.25;18.00;;;;;17.64;70.96;102045.91;4890325;28;45939;-67
2021/08/31 05:55:13;;;;;;;;;17.50;16.25;;;;;17.65;70.96;102052.09;4876257;28;45952;-71
2021/08/31 05:57:39;;;;;;;;;22.00;19.50;;;;;17.67;70.97;102055.44;4873125;28;45519;-71
2021/08/31 06:00:07;;;;;;;;;20.00;17.50;;;;;17.69;70.87;102064.97;4880313;28;46134;-71
2021/08/31 06:02:32;;;;;;;;;18.75;18.00;;;;;17.71;71.21;102059.47;4882850;29;45742;-71
2021/08/31 06:04:58;;;;;;;;;24.75;21.50;;;;;17.73;70.56;102060.97;4881449;28;45730;-73
2021/08/31 06:07:24;;;;;;;;;20.25;17.50;;;;;17.76;71.08;102060.66;4881423;28;45626;-73
2021/08/31 06:09:50;;;;;;;;;22.00;17.50;;;;;17.83;71.00;102068.88;4881911;28;45519;-71
2021/08/31 06:12:15;;;;;;;;;21.25;18.50;;;;;17.90;70.93;102066.38;4880999;28;47785;-70
2021/08/31 06:14:41;;;;;;;;;21.00;18.50;;;;;17.94;70.82;102075.75;4884143;28;45819;-75
2021/08/31 06:17:07;;;;;;;;;23.50;17.75;;;;;17.97;70.41;102070.06;4881607;29;45593;-75
2021/08/31 06:19:33;;;;;;;;;27.00;21.00;;;;;18.01;70.56;102074.91;4880529;28;45549;-74
2021/08/31 06:21:59;;;;;;;;;21.25;19.25;;;;;18.04;70.23;102073.75;4882305;28;57083;-74
2021/08/31 06:24:24;;;;;;;;;24.00;22.00;;;;;18.07;70.56;102070.72;4880904;28;45582;-74
2021/08/31 06:26:50;;;;;;;;;24.50;21.25;;;;;18.09;70.37;102078.59;4883259;29;45527;-75
2021/08/31 06:29:15;;;;;;;;;23.75;22.25;;;;;18.13;70.09;102078.09;4883627;28;51514;-75
2021/08/31 06:31:40;;;;;;;;;22.00;20.25;;;;;18.17;70.25;102068.72;4883755;28;46027;-75
2021/08/31 06:34:06;;;;;;;;;23.75;21.25;;;;;18.19;70.17;102072.06;4884452;28;45657;-76
2021/08/31 06:36:31;;;;;;;;;26.50;22.25;;;;;18.20;69.96;102076.44;4882598;28;45449;-74
2021/08/31 06:38:56;;;;;;;;;28.75;23.50;;;;;18.19;70.40;102081.94;4887795;28;46940;-75
2021/08/31 06:41:22;;;;;;;;;26.75;24.75;;;;;18.17;70.00;102084.78;4884761;28;45919;-74
2021/08/31 06:43:47;;;;;;;;;23.50;20.25;;;;;18.17;70.00;102082.09;4884935;28;45618;-74
2021/08/31 06:46:16;;;;;;;;;24.25;21.75;;;;;18.19;70.06;102076.59;4885077;28;45524;-74
2021/08/31 06:48:43;;;;;;;;;25.00;21.25;;;;;18.22;70.15;102068.22;4885057;28;46153;-76
2021/08/31 06:51:10;;;;;;;;;28.25;25.00;;;;;18.24;70.13;102083.09;4885510;28;45699;-74
2021/08/31 06:53:36;;;;;;;;;24.25;24.00;;;;;18.25;69.78;102079.44;4887131;29;45963;-75
2021/08/31 06:56:01;;;;;;;;;29.00;23.00;;;;;18.31;69.93;102077.09;4879626;28;46271;-75
2021/08/31 06:58:26;;;;;;;;;26.75;22.50;;;;;18.44;69.49;102080.09;4878936;28;46432;-74
2021/08/31 07:00:52;;;;;;;;;23.25;22.50;;;;;18.61;69.67;102076.38;4884544;28;45920;-74
2021/08/31 07:03:18;;;;;;;;;29.50;23.25;;;;;18.76;68.83;102083.75;4886707;28;45496;-74
2021/08/31 07:05:43;;;;;;;;;30.25;23.75;;;;;18.86;69.18;102087.09;4888739;29;45541;-74
2021/08/31 07:08:08;;;;;;;;;29.25;22.75;;;;;19.02;68.25;102079.00;4886473;28;54961;-73
2021/08/31 07:10:34;;;;;;;;;26.25;22.25;;;;;19.25;67.85;102083.63;4912592;28;45762;-73
2021/08/31 07:12:59;;;;;;;;;26.50;25.50;;;;;19.55;67.11;102082.78;4884077;28;46114;-73
2021/08/31 07:15:24;;;;;;;;;29.00;24.75;;;;;19.97;66.25;102078.84;4891705;28;46160;-71
2021/08/31 07:17:50;;;;;;;;;30.75;24.25;;;;;20.69;65.03;102082.13;4890558;28;46185;-73
2021/08/31 07:20:15;;;;;;;;;25.25;20.00;;;;;21.16;63.05;102079.06;4885046;28;45569;-72
2021/08/31 07:22:41;;;;;;;;;31.50;26.25;;;;;21.50;62.33;102085.72;4901731;28;45576;-73
2021/08/31 07:25:06;;;;;;;;;24.25;19.50;;;;;21.71;61.61;102076.00;4901179;28;45699;-74
2021/08/31 07:27:32;;;;;;;;;22.00;20.50;;;;;21.96;61.10;102084.53;4885794;28;51258;-74
2021/08/31 07:29:57;;;;;;;;;25.75;24.00;;;;;22.59;60.46;102074.75;4959307;28;46070;-74
2021/08/31 07:32:23;;;;;;;;;25.25;21.00;;;;;22.92;58.69;102074.97;4891874;28;45466;-74
2021/08/31 07:34:48;;;;;;;;;22.75;21.00;;;;;23.10;57.76;102079.03;4885072;28;45585;-74
2021/08/31 07:37:13;;;;;;;;;32.25;24.50;;;;;23.21;57.35;102078.44;4888754;28;46249;-74
2021/08/31 07:39:39;;;;;;;;;24.50;19.75;;;;;23.26;56.99;102075.16;4903223;28;45816;-75
2021/08/31 07:42:05;;;;;;;;;22.00;18.50;;;;;23.34;57.11;102081.22;4897443;28;46080;-75
2021/08/31 07:44:30;;;;;;;;;26.50;23.25;;;;;23.37;56.27;102091.59;4919505;28;45497;-75
2021/08/31 07:46:57;;;;;;;;;25.50;21.25;;;;;23.38;56.44;102085.16;4908845;28;46988;-75
2021/08/31 07:49:22;;;;;;;;;21.00;18.50;;;;;23.25;56.75;102087.81;4905667;28;45502;-75
2021/08/31 07:51:48;;;;;;;;;26.75;23.00;;;;;23.15;56.97;102093.56;4894275;28;45510;-75
2021/08/31 07:54:13;;;;;;;;;25.00;22.50;;;;;22.92;56.82;102093.00;4901217;28;45558;-74
2021/08/31 07:56:40;;;;;;;;;21.00;17.50;;;;;22.84;56.57;102088.59;4910685;28;47246;-75
2021/08/31 07:59:05;;;;;;;;;29.00;21.25;;;;;22.94;57.31;102094.44;4908452;28;45527;-74
2021/08/31 08:01:32;;;;;;;;;26.75;23.75;;;;;23.03;56.30;102100.56;4908743;28;46058;-74
2021/08/31 08:03:58;;;;;;;;;24.00;20.25;;;;;22.94;56.71;102097.16;4898571;28;45662;-74
2021/08/31 08:06:23;;;;;;;;;23.50;20.50;;;;;22.96;56.36;102103.19;4968459;28;48721;-74
2021/08/31 08:08:49;;;;;;;;;22.25;21.00;;;;;23.50;56.13;102103.47;4911582;28;45950;-75
2021/08/31 08:11:14;;;;;;;;;24.25;20.50;;;;;23.69;55.07;102104.53;4908710;28;45506;-75
2021/08/31 08:13:40;;;;;;;;;24.50;20.75;;;;;23.80;54.31;102109.38;4908536;28;45573;-74
2021/08/31 08:16:05;;;;;;;;;23.00;21.00;;;;;23.82;54.91;102115.44;4897346;28;46249;-74
2021/08/31 08:18:31;;;;;;;;;22.75;19.75;;;;;23.89;54.53;102118.16;4966645;28;45535;-70
2021/08/31 08:20:56;;;;;;;;;21.50;19.50;;;;;23.99;53.34;102118.56;4910789;28;45851;-73
2021/08/31 08:23:22;;;;;;;;;22.00;19.00;;;;;25.07;53.62;102111.06;4908483;28;45930;-79
2021/08/31 08:25:47;;;;;;;;;17.50;17.00;;;;;27.36;49.70;102115.41;4909337;28;45900;-70
2021/08/31 08:28:13;;;;;;;;;21.25;18.00;;;;;28.27;45.99;102113.47;4908362;28;45829;-66
2021/08/31 08:30:38;;;;;;;;;17.75;16.75;;;;;27.97;46.40;102114.38;4887099;28;45491;-65
2021/08/31 08:33:03;;;;;;;;;17.00;15.25;;;;;28.95;45.45;102115.59;4910179;28;45494;-64
2021/08/31 08:35:29;;;;;;;;;21.75;18.00;;;;;29.34;43.98;102118.63;4907684;28;46163;-62
2021/08/31 08:37:57;;;;;;;;;18.25;17.25;;;;;31.93;42.18;102110.97;4907509;28;45892;-64
2021/08/31 08:40:23;;;;;;;;;21.00;18.75;;;;;33.24;39.04;102112.38;4922240;28;46122;-62
2021/08/31 08:42:51;;;;;;;;;18.25;17.00;;;;;33.09;38.27;102124.91;4889619;28;45506;-62
2021/08/31 08:45:17;;;;;;;;;16.25;16.25;;;;;33.55;36.94;102135.19;4898421;28;47310;-63
2021/08/31 08:47:42;;;;;;;;;18.75;15.25;;;;;34.56;36.29;102132.78;4905594;28;46008;-62
2021/08/31 08:50:08;;;;;;;;;20.25;18.50;;;;;35.27;33.41;102126.25;4918575;28;45486;-62
2021/08/31 08:52:34;;;;;;;;;12.50;12.50;;;;;34.08;34.49;102132.28;4908185;28;45499;-61
2021/08/31 08:54:59;;;;;;;;;16.75;15.25;;;;;33.51;35.99;102140.38;4900511;28;46141;-62
2021/08/31 08:57:29;;;;;;;;;21.50;17.00;;;;;32.72;35.85;102147.69;4892505;28;45602;-62
2021/08/31 08:59:55;;;;;;;;;16.75;14.25;;;;;33.32;36.63;102141.97;4908846;28;45430;-62
2021/08/31 09:02:32;;;;;;;;;20.75;18.75;;;;;35.32;34.52;102140.78;4908053;28;45484;-62
2021/08/31 09:04:57;;;;;;;;;15.00;14.75;;;;;36.28;32.70;102137.66;4908107;28;46946;-62
2021/08/31 09:07:25;;;;;;;;;14.75;14.75;;;;;37.55;30.75;102148.28;4907436;28;45613;-62
2021/08/31 09:10:11;;;;;;;;;16.00;13.50;;;;;38.36;29.96;102138.97;4888178;28;46126;-62
2021/08/31 09:12:37;;;;;;;;;18.00;16.00;;;;;37.82;29.42;102144.81;4885552;28;46367;-62
2021/08/31 09:15:19;;;;;;;;;14.50;13.75;;;;;37.36;27.38;102153.75;4912832;28;46981;-62
2021/08/31 09:18:03;;;;;;;;;15.25;13.00;;;;;35.73;29.05;102162.56;4960313;28;46030;-61
2021/08/31 09:20:30;;;;;;;;;15.75;12.75;;;;;35.84;29.81;102145.97;4909720;28;45872;-62
2021/08/31 09:22:56;;;;;;;;;20.50;18.50;;;;;35.26;29.95;102152.91;4908074;28;45927;-63
2021/08/31 09:25:35;;;;;;;;;13.50;13.50;;;;;35.14;31.04;102174.38;4907521;28;47068;-63
2021/08/31 09:28:00;;;;;;;;;16.25;14.25;;;;;35.25;29.58;102148.50;4885497;28;45500;-63
2021/08/31 09:30:29;;;;;;;;;18.25;14.75;;;;;35.69;30.01;102153.22;4965445;28;45701;-63
2021/08/31 09:33:12;;;;;;;;;18.00;16.50;;;;;37.43;27.81;102143.19;4910005;28;45926;-63
2021/08/31 09:35:48;;;;;;;;;15.50;13.25;;;;;38.90;21.64;102146.50;4907085;28;46382;-62
2021/08/31 09:38:16;;;;;;;;;14.25;13.50;;;;;37.82;26.54;102144.81;4879413;28;49981;-62
2021/08/31 09:40:44;;;;;;;;;17.25;15.50;;;;;37.65;25.74;102148.13;4896485;28;45655;-63
2021/08/31 09:43:18;;;;;;;;;15.25;14.00;;;;;38.33;26.86;102148.69;4880508;28;45579;-62
2021/08/31 09:45:45;;;;;;;;;20.25;19.50;;;;;36.88;27.46;102147.50;4963096;28;47181;-64
2021/08/31 09:48:14;;;;;;;;;20.50;19.25;;;;;34.99;29.13;102147.78;4901672;28;45780;-63
2021/08/31 09:50:42;;;;;;;;;21.75;17.00;;;;;33.47;30.46;102150.22;4909712;28;45630;-67
2021/08/31 09:53:07;;;;;;;;;24.75;20.00;;;;;32.28;32.10;102150.66;4907385;28;45625;-65
2021/08/31 09:55:33;;;;;;;;;23.75;21.00;;;;;31.20;33.08;102151.41;4905090;28;48313;-65
2021/08/31 09:58:21;;;;;;;;;21.50;18.75;;;;;31.04;34.43;102153.13;4888485;28;45654;-64
2021/08/31 10:00:48;;;;;;;;;20.25;18.50;;;;;31.94;34.96;102144.63;4883842;28;45731;-65
2021/08/31 10:03:15;;;;;;;;;20.25;19.50;;;;;32.42;33.62;102144.72;4910774;28;45571;-64
2021/08/31 10:05:41;;;;;;;;;20.50;17.00;;;;;32.56;33.59;102143.22;4885656;28;45452;-64
2021/08/31 10:08:08;;;;;;;;;20.50;17.75;;;;;33.09;33.62;102148.75;4884041;28;45518;-64
2021/08/31 10:10:35;;;;;;;;;21.00;17.50;;;;;33.06;32.77;102158.31;4881472;28;45471;-66
2021/08/31 10:13:03;;;;;;;;;26.50;24.50;;;;;32.17;33.23;102159.03;4884580;28;45389;-64
2021/08/31 10:15:29;;;;;;;;;25.25;24.75;;;;;31.18;34.32;102159.06;4877121;28;46216;-64
2021/08/31 10:17:56;;;;;;;;;21.00;20.25;;;;;30.34;35.51;102159.16;4880442;29;45676;-63
2021/08/31 10:20:25;;;;;;;;;22.25;20.75;;;;;29.46;36.21;102151.25;4877293;29;45480;-73
2021/08/31 10:22:51;;;;;;;;;22.00;21.00;;;;;28.65;37.60;102164.72;4880873;28;45989;-66
2021/08/31 10:25:23;;;;;;;;;21.00;19.00;;;;;28.15;38.95;102156.94;4876453;28;46728;-73
2021/08/31 10:27:49;;;;;;;;;21.25;21.25;;;;;28.00;38.67;102160.09;4876311;28;45594;-70
2021/08/31 10:30:15;;;;;;;;;20.25;20.25;;;;;27.78;38.76;102150.78;4874983;28;45748;-70
2021/08/31 10:32:41;;;;;;;;;17.25;15.00;;;;;27.83;38.12;102161.81;4881104;29;45711;-67
2021/08/31 10:35:08;;;;;;;;;15.50;14.75;;;;;28.43;38.10;102156.25;4884739;29;46355;-66
2021/08/31 10:37:47;;;;;;;;;18.75;14.75;;;;;28.90;37.13;102150.84;4882963;29;45957;-68
2021/08/31 10:40:33;;;;;;;;;16.50;16.00;;;;;29.68;37.40;102161.53;4882416;28;45735;-67
2021/08/31 10:42:59;;;;;;;;;28.00;27.00;;;;;30.53;37.17;102162.44;4871191;28;45785;-67
2021/08/31 10:45:25;;;;;;;;;19.75;17.00;;;;;30.79;36.08;102160.94;4883576;28;46226;-65
2021/08/31 10:47:51;;;;;;;;;22.75;22.00;;;;;30.94;36.10;102165.81;4885021;29;45379;-65
2021/08/31 10:50:21;;;;;;;;;21.75;20.00;;;;;31.31;35.26;102167.91;4882424;28;45968;-65
2021/08/31 10:52:50;;;;;;;;;25.00;22.75;;;;;31.99;35.61;102152.84;4879925;29;45983;-65
2021/08/31 10:55:18;;;;;;;;;26.00;22.25;;;;;32.70;34.44;102158.09;4880367;28;46563;-65
2021/08/31 10:57:44;;;;;;;;;21.25;19.75;;;;;32.77;33.51;102158.69;4873862;28;46127;-65
2021/08/31 11:00:16;;;;;;;;;17.75;16.00;;;;;32.25;32.74;102153.09;4947322;28;45837;-65
2021/08/31 11:02:50;;;;;;;;;16.00;15.25;;;;;32.11;34.20;102161.72;4879833;29;45916;-65
2021/08/31 11:05:22;;;;;;;;;14.50;13.25;;;;;31.99;31.85;102162.97;4881409;28;47215;-68
2021/08/31 11:07:50;;;;;;;;;17.25;14.75;;;;;32.24;33.47;102146.78;4878699;28;45936;-65